Time;durP1;ratioP1;P1;durP2;ratioP2;P2;SDS_P1;SDS_P2;PMS_P1;PMS_P2;Temp;Humidity;BMP_temperature;BMP_pressure;BME280_temperature;BME280_humidity;BME280_pressure;Samples;Min_cycle;Max_cycle;Signal;HPM_P1;HPM_P2
2021/03/03 00:01:14;;;;;;;65.57;37.13;;;3.10;96.40;;;;;;4950793;28;20054;-77
2021/03/03 00:03:42;;;;;;;65.70;37.30;;;3.10;96.70;;;;;;4935363;29;20082;-77
2021/03/03 00:06:08;;;;;;;68.10;38.13;;;3.10;96.60;;;;;;4950990;28;20039;-77
2021/03/03 00:08:34;;;;;;;58.75;34.40;;;3.10;96.50;;;;;;4931503;29;20059;-77
2021/03/03 00:11:00;;;;;;;51.97;33.30;;;3.10;96.50;;;;;;4934825;29;20059;-77
2021/03/03 00:13:26;;;;;;;63.90;35.92;;;3.10;96.50;;;;;;4936739;29;20035;-77
2021/03/03 00:15:51;;;;;;;51.78;31.83;;;3.10;96.50;;;;;;4929102;29;20057;-77
2021/03/03 00:18:17;;;;;;;61.80;33.92;;;3.10;96.70;;;;;;4932268;29;20054;-78
2021/03/03 00:20:43;;;;;;;76.90;39.95;;;3.00;96.50;;;;;;4931242;29;20085;-78
2021/03/03 00:23:08;;;;;;;71.25;37.05;;;3.00;96.50;;;;;;4932927;29;20118;-78
2021/03/03 00:25:34;;;;;;;70.47;37.40;;;3.00;96.50;;;;;;4931168;29;20050;-78
2021/03/03 00:28:00;;;;;;;63.95;36.17;;;3.00;96.60;;;;;;4935266;29;20110;-78
2021/03/03 00:30:26;;;;;;;55.35;33.38;;;2.90;96.60;;;;;;4912552;29;20063;-77
2021/03/03 00:32:51;;;;;;;47.83;27.98;;;2.90;96.60;;;;;;4933420;29;20083;-77
2021/03/03 00:35:17;;;;;;;54.13;31.45;;;2.90;96.60;;;;;;4930842;29;20784;-77
2021/03/03 00:37:43;;;;;;;51.10;31.58;;;2.90;96.60;;;;;;4933930;29;20043;-78
2021/03/03 00:40:10;;;;;;;52.20;31.52;;;2.80;96.60;;;;;;4931420;29;20044;-78
2021/03/03 00:42:35;;;;;;;55.10;32.45;;;2.80;96.60;;;;;;4933414;29;20039;-78
2021/03/03 00:45:04;;;;;;;58.95;34.50;;;2.70;96.70;;;;;;4932768;29;20523;-78
2021/03/03 00:47:30;;;;;;;60.10;34.70;;;2.80;96.70;;;;;;4913211;29;20196;-78
2021/03/03 00:49:56;;;;;;;53.03;31.70;;;2.80;96.80;;;;;;4933326;29;20040;-78
2021/03/03 00:52:22;;;;;;;58.53;34.45;;;2.70;96.70;;;;;;4914306;29;20043;-78
2021/03/03 00:54:48;;;;;;;62.88;33.88;;;2.70;96.70;;;;;;4933257;29;20039;-78
2021/03/03 00:57:13;;;;;;;61.25;35.22;;;2.70;96.70;;;;;;4933571;29;20052;-78
2021/03/03 00:59:39;;;;;;;73.13;40.58;;;2.70;96.80;;;;;;4932520;29;20054;-78
2021/03/03 01:02:05;;;;;;;67.15;36.17;;;2.70;96.90;;;;;;4912902;29;20133;-78
2021/03/03 01:04:31;;;;;;;62.63;34.47;;;2.70;97.00;;;;;;4917236;29;20067;-78
2021/03/03 01:06:57;;;;;;;69.63;36.47;;;2.70;97.00;;;;;;4933005;28;20086;-78
2021/03/03 01:09:23;;;;;;;58.92;32.17;;;2.70;97.00;;;;;;4934208;29;20524;-78
2021/03/03 01:11:49;;;;;;;58.35;33.25;;;2.70;97.10;;;;;;4949207;29;20036;-78
2021/03/03 01:14:15;;;;;;;63.60;35.47;;;2.70;97.00;;;;;;4952464;29;20039;-78
2021/03/03 01:16:41;;;;;;;65.40;36.47;;;2.70;97.10;;;;;;4948623;28;20040;-78
2021/03/03 01:19:07;;;;;;;65.63;36.35;;;2.70;97.00;;;;;;4950816;28;20059;-78
2021/03/03 01:21:33;;;;;;;61.83;34.92;;;2.70;97.10;;;;;;4953926;28;20147;-77
2021/03/03 01:23:58;;;;;;;48.00;29.38;;;2.70;97.10;;;;;;4933751;29;20469;-78
2021/03/03 01:26:24;;;;;;;65.75;36.70;;;2.60;96.90;;;;;;4937761;29;20051;-78
2021/03/03 01:28:50;;;;;;;39.80;26.25;;;2.60;96.90;;;;;;4953043;28;20444;-78
2021/03/03 01:31:16;;;;;;;68.13;33.90;;;2.50;96.90;;;;;;4953753;28;20059;-78
2021/03/03 01:33:41;;;;;;;56.38;32.47;;;2.50;96.80;;;;;;4952409;28;20043;-78
2021/03/03 01:36:07;;;;;;;64.60;35.33;;;2.40;96.90;;;;;;4960090;28;20023;-77
2021/03/03 01:38:33;;;;;;;64.40;35.72;;;2.40;97.00;;;;;;4935917;29;20111;-77
2021/03/03 01:40:59;;;;;;;62.35;34.67;;;2.40;97.20;;;;;;4954005;28;20388;-78
2021/03/03 01:43:29;;;;;;;51.88;31.25;;;2.40;97.20;;;;;;4950408;29;20441;-78
2021/03/03 01:45:55;;;;;;;43.70;28.25;;;2.50;97.20;;;;;;4952431;28;20031;-78
2021/03/03 01:48:21;;;;;;;48.45;29.48;;;2.40;97.00;;;;;;4953321;28;20039;-78
2021/03/03 01:50:47;;;;;;;54.92;30.70;;;2.40;96.90;;;;;;4954376;28;20074;-78
2021/03/03 01:53:13;;;;;;;58.33;31.05;;;2.40;97.00;;;;;;4953258;28;20070;-78
2021/03/03 01:55:40;;;;;;;62.78;34.53;;;2.40;97.10;;;;;;4954461;28;20047;-78
2021/03/03 01:58:06;;;;;;;57.03;32.88;;;2.30;97.10;;;;;;4954874;29;20039;-78
2021/03/03 02:00:32;;;;;;;72.50;38.25;;;2.40;97.20;;;;;;4949277;28;20352;-78
2021/03/03 02:02:58;;;;;;;73.47;37.45;;;2.40;97.30;;;;;;4954641;28;20062;-78
2021/03/03 02:05:25;;;;;;;72.68;39.20;;;2.40;97.50;;;;;;4952545;28;20066;-78
2021/03/03 02:08:45;;;;;;;79.28;41.03;;;2.50;97.60;;;;;;4955072;28;20054;-78
2021/03/03 02:11:40;;;;;;;65.70;35.60;;;2.50;97.80;;;;;;4875995;29;20453;-78
2021/03/03 02:14:08;;;;;;;58.60;32.90;;;2.50;97.70;;;;;;4947717;28;20396;-78
2021/03/03 02:16:36;;;;;;;63.30;34.63;;;2.50;97.50;;;;;;4953621;28;20035;-78
2021/03/03 02:19:04;;;;;;;60.75;34.13;;;2.40;97.30;;;;;;4938759;29;20062;-78
2021/03/03 02:21:36;;;;;;;67.57;34.45;;;2.40;97.40;;;;;;4936729;29;20087;-78
2021/03/03 02:24:14;;;;;;;60.42;31.80;;;2.40;97.30;;;;;;4953359;28;20046;-78
2021/03/03 02:26:41;;;;;;;56.22;32.42;;;2.40;97.60;;;;;;4951886;28;20043;-78
2021/03/03 02:29:17;;;;;;;47.42;28.00;;;2.40;97.60;;;;;;4954354;28;20043;-78
2021/03/03 02:31:45;;;;;;;56.90;32.88;;;2.40;97.40;;;;;;4952693;28;20043;-78
2021/03/03 02:34:15;;;;;;;46.28;27.30;;;2.30;97.40;;;;;;4959509;28;20039;-78
2021/03/03 02:36:46;;;;;;;38.15;24.40;;;2.30;97.30;;;;;;4951450;28;20035;-78
2021/03/03 02:39:14;;;;;;;41.55;26.25;;;2.20;97.30;;;;;;4955896;29;20054;-78
2021/03/03 02:41:41;;;;;;;42.30;26.38;;;2.20;97.20;;;;;;4952967;29;20035;-78
2021/03/03 02:44:08;;;;;;;42.20;24.90;;;2.20;97.30;;;;;;4954698;29;20051;-78
2021/03/03 02:46:35;;;;;;;34.72;23.88;;;2.10;97.50;;;;;;4933844;29;20056;-78
2021/03/03 02:49:02;;;;;;;39.78;24.65;;;2.10;97.20;;;;;;4943361;29;20061;-78
2021/03/03 02:51:28;;;;;;;49.83;27.95;;;2.10;97.20;;;;;;4952240;29;20047;-78
2021/03/03 02:53:54;;;;;;;49.13;29.67;;;2.00;97.30;;;;;;4952948;28;20090;-78
2021/03/03 02:56:20;;;;;;;35.50;23.80;;;2.00;97.40;;;;;;4952172;28;20380;-78
2021/03/03 02:58:46;;;;;;;38.42;24.08;;;2.00;97.40;;;;;;4936656;28;20165;-78
2021/03/03 03:01:14;;;;;;;44.17;25.80;;;2.00;97.30;;;;;;4950941;28;20115;-78
2021/03/03 03:04:02;;;;;;;50.28;28.30;;;2.00;97.30;;;;;;4954517;28;20046;-78
2021/03/03 03:06:34;;;;;;;38.10;24.27;;;1.90;97.30;;;;;;4951390;28;20073;-78
2021/03/03 03:09:06;;;;;;;40.85;24.08;;;1.90;97.30;;;;;;4954087;29;20054;-78
2021/03/03 03:11:32;;;;;;;40.08;24.67;;;1.90;97.30;;;;;;4950659;29;20035;-78
2021/03/03 03:14:12;;;;;;;43.85;26.55;;;1.90;97.30;;;;;;4936468;29;20087;-78
2021/03/03 03:16:40;;;;;;;39.90;24.10;;;1.80;97.30;;;;;;4934026;29;20039;-77
2021/03/03 03:19:09;;;;;;;36.83;23.88;;;1.80;97.30;;;;;;4956120;28;20105;-78
2021/03/03 03:21:38;;;;;;;34.72;23.40;;;1.80;97.30;;;;;;4932477;29;20055;-78
2021/03/03 03:24:06;;;;;;;47.10;27.45;;;1.70;97.60;;;;;;4936237;29;20475;-78
2021/03/03 03:26:35;;;;;;;36.08;25.02;;;1.70;97.30;;;;;;4951120;29;20117;-78
2021/03/03 03:29:01;;;;;;;48.50;27.05;;;1.70;97.30;;;;;;4951682;28;20472;-78
2021/03/03 03:31:27;;;;;;;38.08;23.65;;;1.70;97.30;;;;;;4951324;28;20122;-78
2021/03/03 03:33:53;;;;;;;42.30;27.17;;;1.70;97.30;;;;;;4950879;28;20276;-77
2021/03/03 03:36:20;;;;;;;42.63;26.13;;;1.60;97.40;;;;;;4953651;29;20043;-78
2021/03/03 03:38:45;;;;;;;53.20;30.77;;;1.60;97.40;;;;;;4950923;28;20044;-78
2021/03/03 03:41:13;;;;;;;42.42;26.85;;;1.60;97.50;;;;;;4952967;28;20050;-78
2021/03/03 03:43:39;;;;;;;36.30;24.00;;;1.70;97.60;;;;;;4934254;29;20094;-78
2021/03/03 03:46:07;;;;;;;50.05;28.42;;;1.70;97.50;;;;;;4934541;28;20395;-78
2021/03/03 03:48:36;;;;;;;43.30;25.90;;;1.70;97.50;;;;;;4951211;28;20118;-78
2021/03/03 03:51:07;;;;;;;48.05;29.52;;;1.60;97.60;;;;;;4935582;29;20055;-78
2021/03/03 03:53:33;;;;;;;52.67;31.15;;;1.70;97.70;;;;;;4951052;28;20461;-78
2021/03/03 03:56:00;;;;;;;49.83;27.67;;;1.70;97.70;;;;;;4935567;29;20089;-78
2021/03/03 03:58:26;;;;;;;45.20;26.08;;;1.70;97.60;;;;;;4950077;28;20035;-78
2021/03/03 04:00:52;;;;;;;50.50;29.30;;;1.70;97.60;;;;;;4951728;28;20167;-78
2021/03/03 04:03:18;;;;;;;43.35;26.83;;;1.70;97.60;;;;;;4949894;28;20114;-78
2021/03/03 04:05:44;;;;;;;45.60;29.30;;;1.60;97.60;;;;;;4935855;29;20093;-78
2021/03/03 04:08:10;;;;;;;50.38;29.02;;;1.60;97.60;;;;;;4950812;28;20055;-78
2021/03/03 04:10:35;;;;;;;47.83;28.05;;;1.60;97.60;;;;;;4954625;28;20039;-78
2021/03/03 04:13:02;;;;;;;44.17;27.92;;;1.60;97.60;;;;;;4955964;28;20039;-78
2021/03/03 04:15:28;;;;;;;42.45;26.60;;;1.60;97.60;;;;;;4947694;28;20031;-78
2021/03/03 04:17:53;;;;;;;46.33;27.83;;;1.60;97.60;;;;;;4951172;28;20495;-78
2021/03/03 04:20:21;;;;;;;44.85;27.27;;;1.60;97.60;;;;;;4933998;29;20448;-78
2021/03/03 04:22:47;;;;;;;45.38;27.67;;;1.60;97.60;;;;;;4951532;28;20031;-78
2021/03/03 04:25:15;;;;;;;44.40;27.45;;;1.60;97.60;;;;;;4933527;29;20047;-79
2021/03/03 04:27:41;;;;;;;45.22;27.85;;;1.60;97.70;;;;;;4953392;28;20031;-79
2021/03/03 04:30:10;;;;;;;43.30;27.02;;;1.60;97.70;;;;;;4952640;29;20042;-79
2021/03/03 04:32:36;;;;;;;43.03;27.35;;;1.60;97.70;;;;;;4948024;28;20039;-79
2021/03/03 04:35:03;;;;;;;49.00;28.10;;;1.50;97.60;;;;;;4947251;28;20473;-79
2021/03/03 04:37:29;;;;;;;47.67;27.98;;;1.50;97.70;;;;;;4933201;29;20043;-78
2021/03/03 04:39:55;;;;;;;43.90;27.13;;;1.50;97.70;;;;;;4950477;29;20042;-78
2021/03/03 04:42:21;;;;;;;45.05;26.75;;;1.60;97.70;;;;;;4953960;28;20082;-78
2021/03/03 04:44:47;;;;;;;48.67;28.27;;;1.50;97.70;;;;;;4949487;28;20035;-78
2021/03/03 04:47:12;;;;;;;42.55;27.02;;;1.50;97.70;;;;;;4951250;28;20039;-78
2021/03/03 04:49:38;;;;;;;39.03;25.15;;;1.50;97.70;;;;;;4952500;29;20043;-78
2021/03/03 04:52:05;;;;;;;51.45;28.13;;;1.50;97.70;;;;;;4933098;29;20409;-78
2021/03/03 04:54:30;;;;;;;59.83;32.00;;;1.50;97.80;;;;;;4952902;29;20118;-78
2021/03/03 04:56:56;;;;;;;50.60;29.95;;;1.50;97.90;;;;;;4932951;29;20122;-78
2021/03/03 04:59:22;;;;;;;41.13;26.55;;;1.60;98.00;;;;;;4937131;29;20051;-78
2021/03/03 05:01:48;;;;;;;53.60;30.17;;;1.60;97.90;;;;;;4960064;28;20041;-78
2021/03/03 05:04:15;;;;;;;53.38;29.48;;;1.50;97.80;;;;;;4956542;29;20089;-78
2021/03/03 05:06:41;;;;;;;49.10;28.98;;;1.50;97.80;;;;;;4936849;29;20071;-78
2021/03/03 05:09:07;;;;;;;45.72;26.48;;;1.50;97.80;;;;;;4937971;29;20051;-78
2021/03/03 05:11:32;;;;;;;48.25;26.40;;;1.50;97.80;;;;;;4956118;28;20050;-78
2021/03/03 05:13:58;;;;;;;51.20;30.98;;;1.50;97.70;;;;;;4956849;29;20054;-78
2021/03/03 05:16:24;;;;;;;51.53;28.42;;;1.40;97.80;;;;;;4953831;29;20039;-78
2021/03/03 05:18:50;;;;;;;55.25;29.45;;;1.40;97.90;;;;;;4956469;28;20039;-78
2021/03/03 05:21:16;;;;;;;50.55;29.60;;;1.40;97.80;;;;;;4953948;29;20047;-78
2021/03/03 05:23:41;;;;;;;45.90;27.05;;;1.40;97.80;;;;;;4956105;29;20527;-79
2021/03/03 05:26:07;;;;;;;45.53;28.10;;;1.40;97.80;;;;;;4954720;29;20118;-78
2021/03/03 05:28:34;;;;;;;43.13;27.13;;;1.40;98.00;;;;;;4955066;29;20039;-78
2021/03/03 05:31:00;;;;;;;53.42;29.52;;;1.30;97.70;;;;;;4937822;29;20432;-78
2021/03/03 05:33:30;;;;;;;45.60;27.73;;;1.30;97.80;;;;;;4938276;29;20106;-78
2021/03/03 05:35:58;;;;;;;52.55;28.67;;;1.30;97.80;;;;;;4948798;29;20496;-78
2021/03/03 05:38:24;;;;;;;40.53;27.58;;;1.30;97.80;;;;;;4955918;28;20039;-78
2021/03/03 05:40:55;;;;;;;49.28;30.42;;;1.30;97.70;;;;;;4955309;29;20059;-78
2021/03/03 05:43:21;;;;;;;44.90;27.67;;;1.30;97.70;;;;;;4956997;28;20104;-78
2021/03/03 05:45:48;;;;;;;47.78;28.25;;;1.20;97.80;;;;;;4937879;29;20464;-78
2021/03/03 05:48:24;;;;;;;42.58;26.10;;;1.30;97.80;;;;;;4953916;29;20043;-78
2021/03/03 05:51:04;;;;;;;35.72;23.83;;;1.20;97.80;;;;;;4955231;29;20506;-78
2021/03/03 05:53:32;;;;;;;40.25;25.88;;;1.20;97.70;;;;;;4953249;29;20043;-78
2021/03/03 05:56:04;;;;;;;35.50;23.08;;;1.20;97.70;;;;;;4959738;28;20074;-78
2021/03/03 05:58:33;;;;;;;41.45;25.95;;;1.10;97.70;;;;;;4938045;29;20035;-78
2021/03/03 06:01:03;;;;;;;44.50;28.67;;;1.10;97.70;;;;;;4938822;29;20494;-78
2021/03/03 06:03:30;;;;;;;36.67;25.77;;;1.10;97.70;;;;;;4938106;29;20086;-79
2021/03/03 06:05:57;;;;;;;41.33;26.83;;;1.10;97.70;;;;;;4958872;28;20097;-78
2021/03/03 06:08:29;;;;;;;40.85;26.55;;;1.10;97.70;;;;;;4938388;29;20058;-78
2021/03/03 06:10:56;;;;;;;43.50;27.02;;;1.10;97.70;;;;;;4937430;29;20060;-79
2021/03/03 06:13:22;;;;;;;46.83;28.80;;;1.00;97.70;;;;;;4936832;29;20047;-78
2021/03/03 06:15:48;;;;;;;55.78;32.35;;;1.10;97.70;;;;;;4954762;29;20094;-79
2021/03/03 06:18:15;;;;;;;46.35;27.20;;;1.00;97.70;;;;;;4955870;28;20043;-78
2021/03/03 06:20:51;;;;;;;38.95;24.40;;;1.00;97.70;;;;;;4955466;29;20050;-78
2021/03/03 06:23:35;;;;;;;53.50;33.90;;;1.10;97.80;;;;;;4956174;29;20181;-80
2021/03/03 06:26:01;;;;;;;54.17;32.75;;;1.10;97.80;;;;;;4956411;29;20074;-79
2021/03/03 06:28:37;;;;;;;57.95;35.78;;;1.10;97.90;;;;;;4938273;29;20058;-78
2021/03/03 06:31:25;;;;;;;51.83;32.30;;;1.10;97.90;;;;;;4937855;29;20418;-78
2021/03/03 06:33:53;;;;;;;61.38;36.80;;;1.20;98.00;;;;;;4935759;29;20051;-78
2021/03/03 06:36:26;;;;;;;71.80;42.78;;;1.20;97.90;;;;;;4937739;29;20503;-77
2021/03/03 06:38:52;;;;;;;97.10;52.55;;;1.30;98.00;;;;;;4954652;29;20448;-76
2021/03/03 06:41:18;;;;;;;87.15;51.72;;;1.30;98.00;;;;;;4952341;28;20412;-77
2021/03/03 06:43:58;;;;;;;68.70;41.60;;;1.40;98.20;;;;;;4954263;29;20067;-77
2021/03/03 06:46:24;;;;;;;74.43;44.70;;;1.40;98.20;;;;;;4951015;29;20129;-78
2021/03/03 06:48:50;;;;;;;76.38;44.40;;;1.60;98.20;;;;;;4955362;29;20146;-78
2021/03/03 06:51:33;;;;;;;69.03;42.03;;;1.60;98.20;;;;;;4953192;29;20081;-78
2021/03/03 06:54:03;;;;;;;66.03;40.47;;;1.70;98.30;;;;;;4954581;29;20055;-78
2021/03/03 06:56:38;;;;;;;71.97;40.13;;;1.70;98.30;;;;;;4953387;28;20493;-77
2021/03/03 06:59:15;;;;;;;64.50;38.72;;;1.80;98.30;;;;;;4954486;29;20064;-77
2021/03/03 07:01:42;;;;;;;83.82;46.78;;;1.80;98.30;;;;;;4952359;28;20035;-78
2021/03/03 07:04:21;;;;;;;78.45;44.85;;;1.80;98.20;;;;;;4953895;29;20050;-78
2021/03/03 07:06:48;;;;;;;74.90;46.88;;;1.90;98.30;;;;;;4951898;29;20045;-77
2021/03/03 07:09:14;;;;;;;78.30;46.17;;;1.90;98.30;;;;;;4936937;29;20059;-78
2021/03/03 07:11:43;;;;;;;75.13;43.17;;;2.00;98.40;;;;;;4952131;29;20053;-78
2021/03/03 07:14:18;;;;;;;88.85;50.25;;;2.00;98.50;;;;;;4937513;29;20089;-78
2021/03/03 07:17:17;;;;;;;83.78;47.10;;;2.10;98.60;;;;;;4935184;29;20087;-78
2021/03/03 07:19:48;;;;;;;80.18;46.80;;;2.20;98.70;;;;;;4955231;29;20460;-78
2021/03/03 07:22:29;;;;;;;84.57;49.83;;;2.30;98.70;;;;;;4951172;28;20039;-78
2021/03/03 07:25:05;;;;;;;89.45;51.55;;;2.40;98.70;;;;;;4951757;29;20055;-78
2021/03/03 07:27:32;;;;;;;94.50;54.42;;;2.50;98.80;;;;;;4949837;29;20118;-78
2021/03/03 07:30:05;;;;;;;93.90;54.08;;;2.60;98.80;;;;;;4937070;29;20070;-78
2021/03/03 07:32:31;;;;;;;100.88;55.22;;;2.70;98.90;;;;;;4951558;29;20047;-78
2021/03/03 07:34:57;;;;;;;86.82;49.17;;;2.70;98.80;;;;;;4954480;29;20126;-78
2021/03/03 07:37:31;;;;;;;89.10;50.95;;;2.80;98.90;;;;;;4951691;29;20050;-78
2021/03/03 07:40:02;;;;;;;81.20;47.75;;;2.90;98.90;;;;;;4954402;29;20047;-79
2021/03/03 07:42:30;;;;;;;81.85;50.05;;;3.00;98.90;;;;;;4951613;29;20035;-79
2021/03/03 07:45:00;;;;;;;87.53;50.53;;;3.00;98.90;;;;;;4954340;29;20395;-78
2021/03/03 07:47:31;;;;;;;84.43;49.28;;;3.20;99.00;;;;;;4951020;29;20688;-78
2021/03/03 07:50:09;;;;;;;88.95;50.83;;;3.20;99.00;;;;;;4945491;29;20680;-78
2021/03/03 07:52:37;;;;;;;76.43;48.80;;;3.30;99.10;;;;;;4950871;29;20058;-78
2021/03/03 07:55:07;;;;;;;86.72;50.42;;;3.40;99.20;;;;;;4954181;29;20043;-78
2021/03/03 07:57:35;;;;;;;91.43;52.67;;;3.50;99.20;;;;;;4934250;29;20491;-79
2021/03/03 08:00:07;;;;;;;81.97;48.83;;;3.50;99.30;;;;;;4920792;29;20082;-79
2021/03/03 08:02:47;;;;;;;80.65;47.35;;;3.60;99.40;;;;;;4951394;29;20427;-79
2021/03/03 08:05:34;;;;;;;107.25;61.60;;;3.80;99.50;;;;;;4954029;29;20062;-79
2021/03/03 08:08:26;;;;;;;91.32;53.95;;;3.90;99.60;;;;;;4945735;29;20051;-79
2021/03/03 08:11:12;;;;;;;81.47;50.33;;;4.10;99.70;;;;;;4933327;29;20400;-79
2021/03/03 08:13:39;;;;;;;87.60;54.70;;;4.30;99.80;;;;;;4911388;29;20055;-78
2021/03/03 08:16:06;;;;;;;87.45;55.25;;;4.50;99.90;;;;;;4952529;28;20114;-79
2021/03/03 08:18:34;;;;;;;81.13;51.45;;;4.70;99.90;;;;;;4953420;28;20050;-80
2021/03/03 08:21:01;;;;;;;91.55;57.30;;;4.90;99.90;;;;;;4936702;29;20059;-79
2021/03/03 08:23:33;;;;;;;67.60;43.60;;;5.10;99.90;;;;;;4952356;28;20039;-79
2021/03/03 08:26:13;;;;;;;75.53;48.20;;;5.20;99.70;;;;;;4956387;28;20043;-79
2021/03/03 08:28:40;;;;;;;70.97;45.42;;;5.40;99.60;;;;;;4959569;28;20035;-79
2021/03/03 08:31:15;;;;;;;76.55;47.42;;;5.50;99.50;;;;;;4939807;29;20094;-79
2021/03/03 08:33:53;;;;;;;72.50;46.90;;;5.60;99.30;;;;;;4952110;28;20043;-78
2021/03/03 08:36:21;;;;;;;70.80;47.85;;;5.80;99.20;;;;;;4933482;29;20463;-79
2021/03/03 08:39:11;;;;;;;60.33;41.83;;;5.90;99.10;;;;;;4945498;29;20039;-79
2021/03/03 08:41:39;;;;;;;70.00;46.00;;;6.10;99.00;;;;;;4948240;29;20182;-79
2021/03/03 08:44:13;;;;;;;71.43;47.20;;;6.30;98.70;;;;;;4947209;29;20118;-78
2021/03/03 08:46:42;;;;;;;61.30;43.25;;;6.40;98.60;;;;;;4951426;28;20125;-80
2021/03/03 08:49:08;;;;;;;65.63;44.60;;;6.50;98.50;;;;;;4950327;28;20507;-80
2021/03/03 08:51:41;;;;;;;60.67;41.30;;;6.70;98.30;;;;;;4937914;29;20142;-79
2021/03/03 08:54:19;;;;;;;60.80;42.05;;;6.90;98.10;;;;;;4955537;29;20045;-79
2021/03/03 08:56:49;;;;;;;65.10;43.20;;;7.10;97.80;;;;;;4953320;29;20148;-79
2021/03/03 08:59:39;;;;;;;57.42;39.95;;;7.20;97.60;;;;;;4953523;29;20094;-79
2021/03/03 09:02:15;;;;;;;56.70;41.70;;;7.40;97.30;;;;;;4947327;29;20098;-80
2021/03/03 09:04:49;;;;;;;59.47;40.58;;;7.60;97.30;;;;;;4936951;29;20059;-80
2021/03/03 09:07:27;;;;;;;56.40;39.47;;;7.70;97.10;;;;;;4953559;29;20075;-79
2021/03/03 09:10:19;;;;;;;58.30;39.38;;;7.90;97.00;;;;;;4934630;29;20051;-78
2021/03/03 09:12:46;;;;;;;54.28;39.38;;;7.90;96.90;;;;;;4953310;29;20039;-79
2021/03/03 09:15:16;;;;;;;56.30;37.05;;;8.10;96.50;;;;;;4951358;29;20058;-79
2021/03/03 09:17:43;;;;;;;55.50;40.22;;;8.10;96.10;;;;;;4952819;29;20058;-78
2021/03/03 09:20:16;;;;;;;53.92;38.38;;;8.20;96.00;;;;;;4950860;29;20467;-78
2021/03/03 09:22:44;;;;;;;58.00;39.22;;;8.20;95.60;;;;;;4953128;28;20070;-79
2021/03/03 09:25:12;;;;;;;54.53;37.83;;;8.30;95.30;;;;;;4953988;29;20082;-79
2021/03/03 09:27:40;;;;;;;57.50;42.35;;;8.30;95.10;;;;;;4934151;29;20505;-79
2021/03/03 09:30:07;;;;;;;58.22;42.05;;;8.40;95.10;;;;;;4953933;29;20051;-78
2021/03/03 09:32:33;;;;;;;58.60;41.63;;;8.40;95.00;;;;;;4950906;29;20035;-79
2021/03/03 09:35:05;;;;;;;53.53;40.17;;;8.40;94.90;;;;;;4954349;29;20035;-80
2021/03/03 09:37:44;;;;;;;56.50;41.15;;;8.50;94.70;;;;;;4952890;28;20097;-80
2021/03/03 09:40:14;;;;;;;53.40;39.95;;;8.50;94.30;;;;;;4954973;29;20430;-79
2021/03/03 09:42:43;;;;;;;52.33;39.53;;;8.60;94.50;;;;;;4951960;29;20129;-79
2021/03/03 09:45:23;;;;;;;55.65;40.58;;;8.60;94.40;;;;;;4940434;29;20054;-79
2021/03/03 09:47:49;;;;;;;56.83;39.63;;;8.70;94.00;;;;;;4942859;29;20436;-79
2021/03/03 09:50:18;;;;;;;54.40;39.08;;;8.70;94.10;;;;;;4928308;28;20130;-78
2021/03/03 09:52:50;;;;;;;53.03;39.47;;;8.80;93.80;;;;;;4956129;28;20526;-79
2021/03/03 09:55:18;;;;;;;57.33;40.65;;;8.80;93.90;;;;;;4959347;28;20039;-79
2021/03/03 09:57:51;;;;;;;55.28;39.95;;;8.80;93.50;;;;;;4939448;29;20133;-80
2021/03/03 10:00:22;;;;;;;49.55;37.15;;;8.80;93.50;;;;;;4941144;29;20057;-78
2021/03/03 10:03:03;;;;;;;58.58;39.45;;;8.90;93.40;;;;;;4957269;29;20075;-80
2021/03/03 10:05:31;;;;;;;59.65;40.00;;;8.90;92.90;;;;;;4941134;29;20138;-79
2021/03/03 10:08:11;;;;;;;53.67;38.67;;;9.00;93.40;;;;;;4948266;28;20476;-80
2021/03/03 10:10:45;;;;;;;52.38;37.47;;;9.10;93.30;;;;;;4953083;29;20082;-78
2021/03/03 10:13:24;;;;;;;52.25;39.85;;;9.10;93.00;;;;;;4937989;29;20126;-77
2021/03/03 10:15:51;;;;;;;56.95;39.80;;;9.10;92.20;;;;;;4940191;29;20138;-79
2021/03/03 10:18:17;;;;;;;53.65;38.90;;;9.10;92.80;;;;;;4938820;29;20091;-78
2021/03/03 10:20:49;;;;;;;54.08;40.03;;;9.10;92.80;;;;;;4939887;29;20039;-79
2021/03/03 10:23:17;;;;;;;53.88;40.60;;;9.20;93.10;;;;;;4954191;29;20046;-79
2021/03/03 10:25:50;;;;;;;55.67;40.13;;;9.10;92.80;;;;;;4940798;29;20063;-79
2021/03/03 10:28:25;;;;;;;61.78;41.70;;;9.20;92.80;;;;;;4956808;29;20035;-78
2021/03/03 10:30:54;;;;;;;55.83;40.63;;;9.10;92.60;;;;;;4940160;29;20063;-79
2021/03/03 10:33:35;;;;;;;64.05;44.63;;;9.10;92.70;;;;;;4940354;29;20051;-80
2021/03/03 10:36:14;;;;;;;62.30;44.88;;;9.10;92.60;;;;;;4941516;29;20047;-79
2021/03/03 10:38:54;;;;;;;63.40;45.55;;;9.00;92.70;;;;;;4940123;29;20039;-80
2021/03/03 10:41:25;;;;;;;62.88;45.67;;;9.00;92.50;;;;;;4940945;29;20557;-80
2021/03/03 10:43:51;;;;;;;63.95;43.22;;;9.00;92.30;;;;;;4956360;29;20407;-79
2021/03/03 10:46:19;;;;;;;62.60;44.95;;;8.90;92.40;;;;;;4955539;29;20039;-79
2021/03/03 10:48:46;;;;;;;65.13;45.78;;;8.80;92.70;;;;;;4937537;29;20111;-79
2021/03/03 10:51:14;;;;;;;60.65;45.40;;;8.80;92.60;;;;;;4938095;29;20058;-79
2021/03/03 10:53:54;;;;;;;62.95;46.53;;;8.80;92.90;;;;;;4939294;29;20065;-79
2021/03/03 10:56:40;;;;;;;59.97;42.90;;;8.90;92.80;;;;;;4952344;28;20044;-80
2021/03/03 10:59:22;;;;;;;51.90;39.85;;;8.90;92.60;;;;;;4954987;29;20162;-79
2021/03/03 11:01:51;;;;;;;49.53;38.05;;;8.90;92.80;;;;;;4922720;29;20047;-79
2021/03/03 11:04:17;;;;;;;47.90;36.63;;;9.00;93.00;;;;;;4937519;29;20360;-79
2021/03/03 11:06:43;;;;;;;49.10;37.28;;;9.00;92.80;;;;;;4956290;29;20043;-79
2021/03/03 11:09:14;;;;;;;43.05;34.33;;;9.00;92.30;;;;;;4940278;29;20047;-79
2021/03/03 11:11:51;;;;;;;40.80;33.28;;;8.90;91.80;;;;;;4938026;29;20093;-79
2021/03/03 11:14:18;;;;;;;39.92;31.50;;;8.90;91.90;;;;;;4939768;29;20103;-79
2021/03/03 11:16:44;;;;;;;38.13;31.55;;;8.80;92.00;;;;;;4955287;29;20039;-79
2021/03/03 11:19:10;;;;;;;37.88;31.77;;;8.70;91.80;;;;;;4957223;29;20344;-79
2021/03/03 11:21:36;;;;;;;38.45;31.90;;;8.60;92.30;;;;;;4937060;29;20059;-80
2021/03/03 11:24:02;;;;;;;34.72;29.08;;;8.70;92.10;;;;;;4957551;29;20062;-79
2021/03/03 11:26:28;;;;;;;34.33;29.90;;;8.70;91.90;;;;;;4934898;29;20129;-78
2021/03/03 11:28:54;;;;;;;31.58;27.60;;;8.70;91.80;;;;;;4937073;29;20107;-80
2021/03/03 11:31:20;;;;;;;33.40;27.70;;;8.70;91.80;;;;;;4953421;29;20365;-78
2021/03/03 11:33:46;;;;;;;30.10;26.27;;;8.60;91.80;;;;;;4938949;29;20129;-80
2021/03/03 11:36:14;;;;;;;31.70;26.33;;;8.60;91.70;;;;;;4955973;29;20094;-80
2021/03/03 11:38:40;;;;;;;27.92;24.50;;;8.60;91.50;;;;;;4956104;29;20051;-80
2021/03/03 11:41:07;;;;;;;27.92;24.13;;;8.60;91.90;;;;;;4938139;29;20414;-81
2021/03/03 11:43:33;;;;;;;28.60;24.05;;;8.50;91.60;;;;;;4938929;29;20086;-80
2021/03/03 11:45:59;;;;;;;29.10;26.00;;;8.50;91.60;;;;;;4954199;29;20455;-80
2021/03/03 11:48:25;;;;;;;29.92;25.95;;;8.50;91.80;;;;;;4957713;29;20039;-80
2021/03/03 11:50:50;;;;;;;28.80;24.73;;;8.60;91.40;;;;;;4937285;29;20122;-79
2021/03/03 11:53:16;;;;;;;30.05;25.50;;;8.60;91.10;;;;;;4937510;29;20039;-79
2021/03/03 11:55:42;;;;;;;32.28;28.50;;;8.50;91.00;;;;;;4938135;29;20484;-80
2021/03/03 11:58:08;;;;;;;31.38;26.83;;;8.50;91.30;;;;;;4936710;29;20155;-79
2021/03/03 12:00:34;;;;;;;32.20;27.77;;;8.60;91.30;;;;;;4938665;29;20106;-80
2021/03/03 12:03:00;;;;;;;32.25;28.58;;;8.50;91.20;;;;;;4938422;29;20492;-80
2021/03/03 12:05:26;;;;;;;36.22;29.77;;;8.50;91.20;;;;;;4939144;29;20086;-79
2021/03/03 12:07:52;;;;;;;33.45;29.02;;;8.50;91.20;;;;;;4953767;28;20079;-79
2021/03/03 12:10:18;;;;;;;34.63;30.30;;;8.50;90.90;;;;;;4921840;29;20048;-80
2021/03/03 12:12:45;;;;;;;35.58;31.42;;;8.60;91.30;;;;;;4953330;29;20046;-79
2021/03/03 12:15:11;;;;;;;36.75;31.38;;;8.80;91.10;;;;;;4951439;29;20070;-80
2021/03/03 12:17:37;;;;;;;37.88;31.52;;;8.90;90.80;;;;;;4926946;29;20114;-79
2021/03/03 12:20:08;;;;;;;37.97;30.65;;;9.00;90.60;;;;;;4936181;29;20051;-79
2021/03/03 12:22:36;;;;;;;33.75;29.25;;;9.10;90.00;;;;;;4937560;29;20869;-79
2021/03/03 12:25:04;;;;;;;36.55;30.67;;;9.10;90.00;;;;;;4938913;29;20039;-79
2021/03/03 12:27:30;;;;;;;35.38;28.85;;;9.20;90.50;;;;;;4952930;29;20051;-79
2021/03/03 12:29:56;;;;;;;40.38;34.45;;;9.30;89.90;;;;;;4955275;29;20047;-80
2021/03/03 12:32:22;;;;;;;33.45;29.85;;;9.30;88.70;;;;;;4956067;29;20062;-80
2021/03/03 12:34:48;;;;;;;34.55;30.20;;;9.30;89.60;;;;;;4936690;29;20055;-80
2021/03/03 12:37:14;;;;;;;33.53;28.13;;;9.30;89.50;;;;;;4955101;29;20480;-79
2021/03/03 12:39:40;;;;;;;35.25;28.15;;;9.30;89.30;;;;;;4934140;29;20046;-78
2021/03/03 12:42:06;;;;;;;35.00;29.58;;;9.40;88.80;;;;;;4952795;29;20407;-77
2021/03/03 12:44:31;;;;;;;35.33;28.23;;;9.30;88.20;;;;;;4952688;29;20049;-79
2021/03/03 12:46:58;;;;;;;30.48;26.10;;;9.10;87.40;;;;;;4953913;29;20045;-79